createdAt,value
2019-01-23T00:01:28.874Z,9.17
2019-01-23T00:03:58.260Z,9.97
2019-01-23T00:06:28.026Z,7.73
2019-01-23T00:08:57.626Z,8.20
2019-01-23T00:11:27.204Z,8.87
2019-01-23T00:13:56.731Z,8.17
2019-01-23T00:16:26.232Z,9.80
2019-01-23T00:18:55.730Z,8.53
2019-01-23T00:21:25.313Z,7.87
2019-01-23T00:23:54.687Z,7.77
2019-01-23T00:26:24.277Z,9.60
2019-01-23T00:28:53.872Z,11.03
2019-01-23T00:31:23.476Z,8.90
2019-01-23T00:33:53.026Z,10.00
2019-01-23T00:36:22.678Z,8.47
2019-01-23T00:38:52.228Z,8.73
2019-01-23T00:41:21.938Z,7.97
2019-01-23T00:43:51.445Z,8.97
2019-01-23T00:46:20.954Z,9.87
2019-01-23T00:48:50.452Z,9.07
2019-01-23T00:51:20.077Z,9.97
2019-01-23T00:53:49.519Z,11.13
2019-01-23T00:56:18.979Z,9.93
2019-01-23T00:58:49.326Z,7.83
2019-01-23T01:01:18.977Z,9.87
2019-01-23T01:03:48.364Z,9.03
2019-01-23T01:06:17.697Z,7.93
2019-01-23T01:08:47.166Z,11.50
2019-01-23T01:11:16.551Z,9.30
2019-01-23T01:13:46.003Z,9.17
2019-01-23T01:16:15.351Z,9.10
2019-01-23T01:18:44.887Z,14.37
2019-01-23T01:21:14.326Z,10.70
2019-01-23T01:23:43.760Z,8.00
2019-01-23T01:26:13.155Z,9.17
2019-01-23T01:28:42.485Z,8.63
2019-01-23T01:31:11.819Z,9.43
2019-01-23T01:33:41.211Z,11.00
2019-01-23T01:36:10.645Z,11.47
2019-01-23T01:38:40.684Z,10.73
2019-01-23T01:41:10.018Z,11.37
2019-01-23T01:43:40.774Z,10.53
2019-01-23T01:46:10.158Z,9.00
2019-01-23T01:48:39.719Z,9.70
2019-01-23T01:51:09.251Z,8.47
2019-01-23T01:53:38.728Z,8.53
2019-01-23T01:56:08.206Z,10.10
2019-01-23T01:58:37.554Z,11.47
2019-01-23T02:01:06.928Z,10.07
2019-01-23T02:03:36.322Z,10.43
2019-01-23T02:06:05.730Z,11.93
2019-01-23T02:08:35.035Z,10.63
2019-01-23T02:11:04.471Z,11.13
2019-01-23T02:13:33.816Z,12.53
2019-01-23T02:16:03.214Z,13.67
2019-01-23T02:18:32.573Z,14.43
2019-01-23T02:21:01.922Z,14.27
2019-01-23T02:23:31.317Z,13.77
2019-01-23T02:26:00.717Z,15.20
2019-01-23T02:28:30.153Z,15.50
2019-01-23T02:31:00.058Z,16.40
2019-01-23T02:33:29.428Z,13.33
2019-01-23T02:35:58.784Z,13.87
2019-01-23T02:38:28.167Z,15.00
2019-01-23T02:40:57.505Z,14.60
2019-01-23T02:43:26.838Z,12.97
2019-01-23T02:45:56.164Z,14.10
2019-01-23T02:48:25.483Z,15.87
2019-01-23T02:50:54.814Z,15.93
2019-01-23T02:53:24.158Z,18.47
2019-01-23T02:55:53.489Z,13.67
2019-01-23T02:58:22.810Z,15.33
2019-01-23T03:00:52.169Z,18.03
2019-01-23T03:03:21.519Z,13.53
2019-01-23T03:05:50.852Z,16.77
2019-01-23T03:08:20.195Z,16.83
2019-01-23T03:10:49.522Z,16.33
2019-01-23T03:13:18.892Z,13.73
2019-01-23T03:15:48.224Z,15.87
2019-01-23T03:18:17.607Z,16.30
2019-01-23T03:20:46.974Z,15.93
2019-01-23T03:23:16.319Z,15.10
2019-01-23T03:25:45.681Z,14.03
2019-01-23T03:28:15.132Z,15.53
2019-01-23T03:30:44.523Z,15.10
2019-01-23T03:33:13.860Z,15.13
2019-01-23T03:35:43.215Z,15.57
2019-01-23T03:38:12.580Z,15.97
2019-01-23T03:40:41.977Z,15.07
2019-01-23T03:43:11.305Z,15.00
2019-01-23T03:45:40.662Z,15.53
2019-01-23T03:48:10.076Z,13.27
2019-01-23T03:50:39.384Z,14.70
2019-01-23T03:53:08.921Z,16.43
2019-01-23T03:55:38.261Z,15.40
2019-01-23T03:58:07.601Z,17.27
2019-01-23T04:00:37.046Z,14.80
2019-01-23T04:03:06.517Z,15.73
2019-01-23T04:05:35.878Z,15.27
2019-01-23T04:08:05.240Z,17.90
2019-01-23T04:10:34.628Z,15.97
2019-01-23T04:13:03.958Z,15.23
2019-01-23T04:15:33.370Z,16.57
2019-01-23T04:18:02.718Z,16.30
2019-01-23T04:20:32.051Z,15.40
2019-01-23T04:23:01.415Z,18.77
2019-01-23T04:25:30.843Z,18.57
2019-01-23T04:28:00.208Z,15.13
2019-01-23T04:30:29.678Z,14.17
2019-01-23T04:32:59.021Z,16.37
2019-01-23T04:35:28.387Z,17.07
2019-01-23T04:37:57.743Z,17.93
2019-01-23T04:40:27.081Z,17.00
2019-01-23T04:42:56.383Z,15.70
2019-01-23T04:45:25.682Z,15.70
2019-01-23T04:47:55.043Z,16.83
2019-01-23T04:50:24.417Z,16.10
2019-01-23T04:53:10.625Z,15.53
2019-01-23T04:55:41.472Z,16.07
2019-01-23T04:58:10.844Z,15.90
2019-01-23T05:00:40.188Z,16.43
2019-01-23T05:03:09.523Z,17.20
2019-01-23T05:05:38.866Z,19.13
2019-01-23T05:08:08.293Z,16.33
2019-01-23T05:10:37.705Z,18.03
2019-01-23T05:13:07.052Z,19.33
2019-01-23T05:15:36.420Z,19.10
2019-01-23T05:18:05.926Z,18.07
2019-01-23T05:20:35.301Z,17.97
2019-01-23T05:23:04.733Z,18.27
2019-01-23T05:25:34.075Z,21.63
2019-01-23T05:28:03.416Z,21.17
2019-01-23T05:30:32.898Z,18.33
2019-01-23T05:33:02.288Z,21.90
2019-01-23T05:35:31.604Z,24.63
2019-01-23T05:38:00.945Z,22.20
2019-01-23T05:40:30.298Z,24.03
2019-01-23T05:42:59.615Z,29.57
2019-01-23T05:45:28.967Z,27.97
2019-01-23T05:47:58.320Z,27.53
2019-01-23T05:50:27.649Z,30.47
2019-01-23T05:52:57.032Z,29.07
2019-01-23T05:55:26.369Z,25.17
2019-01-23T05:57:55.708Z,23.47
2019-01-23T06:00:25.143Z,25.07
2019-01-23T06:02:54.535Z,30.67
2019-01-23T06:05:23.964Z,28.13
2019-01-23T06:07:53.317Z,30.17
2019-01-23T06:10:22.670Z,29.77
2019-01-23T06:12:52.025Z,29.03
2019-01-23T06:15:21.371Z,25.67
2019-01-23T06:17:50.720Z,29.77
2019-01-23T06:20:20.771Z,27.13
2019-01-23T06:22:50.368Z,31.10
2019-01-23T06:25:19.740Z,27.50
2019-01-23T06:27:49.071Z,27.80
2019-01-23T06:30:20.587Z,21.83
2019-01-23T06:32:50.065Z,21.13
2019-01-23T06:35:19.527Z,22.50
2019-01-23T06:37:48.878Z,19.93
2019-01-23T06:40:18.464Z,24.17
2019-01-23T06:42:47.933Z,27.53
2019-01-23T06:45:18.109Z,28.83
2019-01-23T06:47:48.101Z,25.17
2019-01-23T06:50:19.288Z,27.93
2019-01-23T06:52:48.769Z,26.57
2019-01-23T06:55:18.566Z,25.17
2019-01-23T06:57:47.934Z,27.47
2019-01-23T07:00:19.144Z,26.53
2019-01-23T07:02:48.662Z,26.67
2019-01-23T07:05:18.555Z,23.27
2019-01-23T07:07:47.988Z,25.77
2019-01-23T07:10:20.054Z,24.37
2019-01-23T07:12:49.598Z,25.60
2019-01-23T07:15:19.169Z,25.87
2019-01-23T07:17:48.537Z,25.70
2019-01-23T07:20:25.883Z,29.70
2019-01-23T07:22:55.235Z,30.70
2019-01-23T07:25:25.590Z,26.77
2019-01-23T07:27:54.910Z,25.60
2019-01-23T07:30:41.736Z,23.83
2019-01-23T07:33:11.123Z,24.20
2019-01-23T07:35:40.520Z,26.73
2019-01-23T07:38:09.886Z,24.87
2019-01-23T07:40:39.368Z,25.03
2019-01-23T07:43:08.737Z,24.00
2019-01-23T07:45:38.090Z,21.00
2019-01-23T07:48:07.459Z,21.17
2019-01-23T07:50:36.829Z,22.00
2019-01-23T07:53:06.168Z,23.37
2019-01-23T07:55:35.597Z,23.03
2019-01-23T07:58:05.036Z,22.93
2019-01-23T08:00:34.376Z,26.73
2019-01-23T08:03:03.714Z,23.20
2019-01-23T08:05:33.050Z,26.67
2019-01-23T08:08:02.391Z,29.13
2019-01-23T08:10:31.754Z,28.67
2019-01-23T08:13:01.085Z,31.80
2019-01-23T08:15:32.569Z,25.20
2019-01-23T08:18:02.051Z,30.57
2019-01-23T08:20:31.837Z,27.27
2019-01-23T08:23:01.196Z,24.33
2019-01-23T08:25:30.521Z,30.73
2019-01-23T08:27:59.917Z,26.70
2019-01-23T08:30:29.362Z,25.63
2019-01-23T08:32:58.694Z,34.53
2019-01-23T08:35:28.569Z,33.67
2019-01-23T08:37:57.929Z,28.70
2019-01-23T08:40:27.277Z,24.57
2019-01-23T08:42:56.605Z,22.27
2019-01-23T08:45:25.913Z,26.70
2019-01-23T08:47:55.267Z,24.47
2019-01-23T08:50:36.479Z,25.70
2019-01-23T08:53:05.977Z,24.70
2019-01-23T08:55:35.310Z,25.07
2019-01-23T08:58:04.933Z,22.50
2019-01-23T09:00:34.328Z,21.80
2019-01-23T09:03:03.621Z,20.73
2019-01-23T09:05:32.952Z,22.23
2019-01-23T09:08:02.385Z,21.27
2019-01-23T09:10:31.841Z,24.93
2019-01-23T09:13:01.186Z,20.33
2019-01-23T09:15:30.646Z,18.80
2019-01-23T09:18:00.031Z,21.93
2019-01-23T09:20:29.392Z,20.07
2019-01-23T09:22:58.754Z,21.07
2019-01-23T09:25:28.088Z,21.37
2019-01-23T09:27:57.437Z,14.33
2019-01-23T09:31:05.336Z,12.23
2019-01-23T09:34:09.193Z,13.20
2019-01-23T09:37:03.150Z,11.50
2019-01-23T09:40:30.386Z,13.70
2019-01-23T09:43:35.424Z,13.23
2019-01-23T09:46:18.733Z,16.80
2019-01-23T09:49:24.852Z,15.07
2019-01-23T09:52:40.282Z,14.60
2019-01-23T09:55:11.354Z,15.03
2019-01-23T09:57:44.573Z,12.30
2019-01-23T10:00:18.099Z,13.37
2019-01-23T10:02:47.513Z,11.87
2019-01-23T10:05:16.981Z,11.27
2019-01-23T10:07:46.341Z,12.93
2019-01-23T10:10:17.203Z,11.37
2019-01-23T10:12:46.568Z,11.90
2019-01-23T10:15:22.769Z,18.60
2019-01-23T10:17:52.093Z,15.13
2019-01-23T10:20:21.438Z,16.87
2019-01-23T10:22:50.775Z,14.97
2019-01-23T10:25:20.097Z,11.27
2019-01-23T10:27:49.912Z,12.10
2019-01-23T10:30:19.380Z,12.27
2019-01-23T10:32:48.728Z,10.23
2019-01-23T10:35:18.204Z,10.60
2019-01-23T10:37:47.532Z,11.00
2019-01-23T10:40:16.914Z,11.50
2019-01-23T10:42:46.545Z,11.50
2019-01-23T10:45:17.443Z,11.73
2019-01-23T10:47:46.750Z,12.07
2019-01-23T10:50:16.099Z,10.23
2019-01-23T10:52:45.451Z,9.77
2019-01-23T10:55:15.086Z,9.03
2019-01-23T10:57:44.647Z,10.50
2019-01-23T11:00:16.642Z,12.93
2019-01-23T11:02:46.010Z,11.20
2019-01-23T11:05:18.415Z,10.83
2019-01-23T11:07:47.756Z,10.20
2019-01-23T11:10:19.566Z,10.47
2019-01-23T11:12:48.891Z,13.77
2019-01-23T11:15:18.207Z,13.87
2019-01-23T11:17:48.155Z,11.80
2019-01-23T11:20:18.578Z,14.67
2019-01-23T11:22:47.942Z,11.90
2019-01-23T11:25:17.590Z,10.23
2019-01-23T11:27:47.754Z,14.17
2019-01-23T11:30:20.295Z,10.37
2019-01-23T11:32:50.818Z,11.17
2019-01-23T11:35:20.368Z,11.80
2019-01-23T11:37:49.873Z,12.20
2019-01-23T11:40:28.095Z,10.53
2019-01-23T11:42:57.643Z,11.30
2019-01-23T11:45:27.090Z,11.03
2019-01-23T11:47:56.409Z,13.33
2019-01-23T11:50:25.727Z,14.87
2019-01-23T11:52:55.237Z,16.70
2019-01-23T11:55:24.570Z,15.57
2019-01-23T11:57:53.873Z,15.17
2019-01-23T12:00:25.151Z,18.43
2019-01-23T12:02:54.489Z,17.50
2019-01-23T12:05:24.535Z,13.97
2019-01-23T12:07:54.102Z,12.00
2019-01-23T12:10:24.240Z,13.87
2019-01-23T12:12:53.668Z,17.47
2019-01-23T12:15:24.206Z,17.10
2019-01-23T12:17:53.542Z,16.57
2019-01-23T12:20:23.284Z,14.27
2019-01-23T12:22:52.714Z,13.27
2019-01-23T12:25:22.055Z,12.17
2019-01-23T12:27:51.424Z,15.67
2019-01-23T12:30:26.616Z,15.57
2019-01-23T12:32:55.979Z,18.17
2019-01-23T12:35:25.441Z,16.33
2019-01-23T12:37:54.897Z,17.90
2019-01-23T12:40:24.247Z,21.27
2019-01-23T12:42:53.582Z,16.57
2019-01-23T12:45:25.133Z,16.50
2019-01-23T12:47:54.439Z,16.30
2019-01-23T12:50:26.751Z,15.57
2019-01-23T12:52:56.184Z,17.07
2019-01-23T12:55:25.543Z,15.20
2019-01-23T12:57:55.018Z,14.87
2019-01-23T13:00:26.464Z,10.37
2019-01-23T13:02:55.794Z,12.33
2019-01-23T13:05:25.535Z,15.20
2019-01-23T13:07:54.962Z,19.47
2019-01-23T13:10:24.858Z,15.07
2019-01-23T13:12:55.851Z,18.07
2019-01-23T13:15:26.461Z,19.23
2019-01-23T13:17:56.872Z,20.80
2019-01-23T13:20:26.638Z,22.17
2019-01-23T13:22:56.366Z,22.33
2019-01-23T13:25:27.419Z,23.73
2019-01-23T13:27:58.636Z,21.20
2019-01-23T13:30:28.216Z,18.57
2019-01-23T13:32:57.553Z,22.03
2019-01-23T13:35:32.762Z,19.67
2019-01-23T13:38:04.587Z,22.83
2019-01-23T13:40:35.864Z,16.87
2019-01-23T13:43:06.812Z,17.90
2019-01-23T13:45:36.220Z,21.23
2019-01-23T13:48:07.138Z,12.30
2019-01-23T13:50:36.459Z,12.70
2019-01-23T13:53:05.935Z,12.90
2019-01-23T13:55:35.257Z,10.83
2019-01-23T13:58:04.920Z,10.60
2019-01-23T14:00:37.032Z,12.43
2019-01-23T14:03:06.754Z,13.33
2019-01-23T14:05:36.153Z,13.93
2019-01-23T14:08:06.915Z,11.57
2019-01-23T14:10:36.407Z,12.83
2019-01-23T14:13:06.477Z,10.07
2019-01-23T14:15:37.257Z,10.90
2019-01-23T14:18:07.185Z,13.07
2019-01-23T14:20:36.520Z,12.90
2019-01-23T14:23:06.593Z,12.03
2019-01-23T14:25:36.266Z,13.33
2019-01-23T14:28:05.918Z,12.20
2019-01-23T14:30:40.991Z,11.10
2019-01-23T14:33:10.404Z,14.60
2019-01-23T14:35:41.394Z,14.33
2019-01-23T14:38:10.924Z,12.33
2019-01-23T14:40:40.253Z,25.60
2019-01-23T14:43:09.745Z,28.60
2019-01-23T14:45:39.164Z,40.83
2019-01-23T14:48:08.526Z,39.23
2019-01-23T14:50:37.876Z,35.13
2019-01-23T14:53:07.212Z,31.43
2019-01-23T14:55:36.612Z,30.43
2019-01-23T14:58:06.253Z,34.43
2019-01-23T15:00:35.719Z,38.20
2019-01-23T15:03:05.579Z,43.33
2019-01-23T15:05:34.987Z,41.17
2019-01-23T15:08:04.439Z,50.20
2019-01-23T15:10:33.769Z,47.63
2019-01-23T15:13:03.323Z,52.43
2019-01-23T15:15:32.659Z,40.97
2019-01-23T15:18:02.101Z,41.17
2019-01-23T15:20:39.658Z,44.17
2019-01-23T15:23:09.144Z,40.23
2019-01-23T15:25:38.612Z,31.60
2019-01-23T15:28:08.676Z,31.43
2019-01-23T15:30:37.985Z,36.60
2019-01-23T15:33:07.320Z,40.63
2019-01-23T15:35:36.737Z,24.97
2019-01-23T15:38:06.105Z,22.43
2019-01-23T15:40:37.639Z,18.90
2019-01-23T15:43:07.187Z,18.10
2019-01-23T15:45:36.555Z,20.77
2019-01-23T15:48:06.159Z,28.80
2019-01-23T15:50:35.600Z,20.23
2019-01-23T15:53:05.048Z,24.90
2019-01-23T15:55:35.029Z,26.90
2019-01-23T15:58:04.727Z,37.70
2019-01-23T16:00:34.582Z,24.67
2019-01-23T16:03:04.086Z,21.53
2019-01-23T16:05:33.422Z,25.60
2019-01-23T16:08:02.770Z,31.93
2019-01-23T16:10:32.233Z,39.53
2019-01-23T16:13:03.002Z,42.83
2019-01-23T16:15:33.984Z,41.23
2019-01-23T16:18:06.633Z,45.60
2019-01-23T16:20:38.314Z,43.73
2019-01-23T16:23:08.847Z,33.90
2019-01-23T16:25:39.167Z,30.70
2019-01-23T16:28:11.602Z,28.27
2019-01-23T16:30:41.553Z,24.07
2019-01-23T16:33:12.468Z,25.00
2019-01-23T16:35:41.859Z,25.97
2019-01-23T16:38:12.445Z,19.27
2019-01-23T16:40:41.806Z,17.33
2019-01-23T16:43:13.152Z,17.60
2019-01-23T16:45:43.416Z,20.03
2019-01-23T16:48:12.869Z,28.50
2019-01-23T16:50:42.232Z,31.80
2019-01-23T16:53:11.674Z,42.17
2019-01-23T16:55:41.135Z,48.07
2019-01-23T16:58:10.901Z,42.40
2019-01-23T17:00:40.540Z,35.77
2019-01-23T17:03:10.225Z,38.23
2019-01-23T17:05:41.216Z,30.00
2019-01-23T17:08:11.046Z,25.73
2019-01-23T17:10:40.775Z,24.10
2019-01-23T17:13:10.177Z,24.73
2019-01-23T17:15:39.531Z,21.73
2019-01-23T17:18:08.914Z,19.77
2019-01-23T17:20:40.802Z,25.13
2019-01-23T17:23:10.267Z,28.53
2019-01-23T17:25:39.660Z,24.03
2019-01-23T17:28:10.571Z,19.30
2019-01-23T17:30:39.942Z,17.57
2019-01-23T17:33:09.490Z,28.00
2019-01-23T17:35:39.108Z,24.37
2019-01-23T17:38:08.608Z,27.47
2019-01-23T17:40:40.918Z,25.37
2019-01-23T17:43:11.260Z,28.23
2019-01-23T17:45:40.942Z,29.70
2019-01-23T17:48:12.822Z,29.13
2019-01-23T17:50:42.505Z,27.17
2019-01-23T17:53:11.988Z,26.70
2019-01-23T17:55:41.913Z,28.90
2019-01-23T17:58:13.680Z,25.97
2019-01-23T18:00:55.686Z,26.63
2019-01-23T18:03:25.026Z,28.17
2019-01-23T18:05:55.655Z,28.40
2019-01-23T18:08:25.320Z,28.93
2019-01-23T18:10:54.803Z,39.47
2019-01-23T18:13:24.155Z,42.07
2019-01-23T18:15:53.963Z,27.43
2019-01-23T18:18:23.303Z,18.43
2019-01-23T18:20:52.642Z,17.97
2019-01-23T18:23:22.180Z,20.23
2019-01-23T18:25:52.723Z,19.43
2019-01-23T18:28:22.077Z,20.03
2019-01-23T18:31:06.173Z,19.63
2019-01-23T18:33:42.035Z,15.07
2019-01-23T18:36:52.610Z,16.93
2019-01-23T18:40:03.531Z,13.37
2019-01-23T18:43:15.764Z,17.10
2019-01-23T18:46:30.102Z,18.20
2019-01-23T18:49:55.388Z,18.70
2019-01-23T18:52:27.467Z,16.67
2019-01-23T18:54:59.586Z,17.73
2019-01-23T18:57:29.461Z,15.97
2019-01-23T18:59:59.539Z,18.47
2019-01-23T19:02:29.435Z,14.60
2019-01-23T19:05:00.362Z,18.43
2019-01-23T19:07:30.034Z,16.80
2019-01-23T19:09:59.615Z,19.40
2019-01-23T19:12:28.945Z,18.53
2019-01-23T19:14:58.302Z,15.53
2019-01-23T19:17:28.463Z,18.77
2019-01-23T19:19:58.108Z,19.17
2019-01-23T19:22:27.750Z,24.60
2019-01-23T19:24:57.694Z,32.50
2019-01-23T19:27:27.382Z,33.17
2019-01-23T19:29:56.940Z,29.60
2019-01-23T19:32:27.640Z,28.67
2019-01-23T19:34:57.250Z,21.37
2019-01-23T19:37:27.122Z,18.27
2019-01-23T19:39:58.032Z,19.77
2019-01-23T19:42:30.457Z,20.17
2019-01-23T19:45:00.313Z,18.80
2019-01-23T19:47:29.971Z,22.97
2019-01-23T19:49:59.373Z,25.90
2019-01-23T19:52:30.836Z,28.47
2019-01-23T19:55:00.454Z,28.60
2019-01-23T19:57:29.897Z,28.33
2019-01-23T19:59:59.367Z,31.93
2019-01-23T20:02:28.944Z,26.07
2019-01-23T20:04:58.726Z,21.57
2019-01-23T20:07:28.367Z,19.60
2019-01-23T20:09:57.947Z,18.80
2019-01-23T20:12:27.601Z,20.10
2019-01-23T20:14:57.144Z,19.00
2019-01-23T20:17:26.790Z,17.87
2019-01-23T20:19:56.466Z,18.93
2019-01-23T20:22:26.228Z,20.90
2019-01-23T20:24:56.162Z,23.20
2019-01-23T20:27:25.907Z,27.43
2019-01-23T20:29:55.902Z,23.57
2019-01-23T20:32:25.520Z,24.23
2019-01-23T20:34:55.128Z,25.50
2019-01-23T20:37:24.697Z,28.83
2019-01-23T20:39:54.562Z,22.50
2019-01-23T20:42:24.151Z,26.50
2019-01-23T20:44:53.768Z,27.33
2019-01-23T20:47:23.330Z,24.63
2019-01-23T20:49:52.851Z,26.20
2019-01-23T20:52:23.711Z,24.07
2019-01-23T20:54:53.251Z,22.33
2019-01-23T20:57:24.736Z,25.97
2019-01-23T20:59:54.409Z,28.17
2019-01-23T21:02:24.346Z,27.70
2019-01-23T21:04:56.938Z,26.57
2019-01-23T21:07:26.892Z,30.43
2019-01-23T21:09:59.383Z,35.73
2019-01-23T21:12:29.166Z,31.90
2019-01-23T21:14:58.850Z,35.80
2019-01-23T21:17:28.500Z,31.27
2019-01-23T21:19:58.220Z,30.77
2019-01-23T21:22:29.322Z,24.57
2019-01-23T21:24:59.055Z,27.23
2019-01-23T21:27:29.049Z,17.17
2019-01-23T21:29:58.824Z,32.30
2019-01-23T21:32:28.230Z,24.17
2019-01-23T21:34:58.396Z,25.90
2019-01-23T21:37:28.265Z,29.30
2019-01-23T21:39:57.764Z,26.47
2019-01-23T21:42:27.342Z,30.10
2019-01-23T21:44:59.521Z,30.50
2019-01-23T21:47:29.957Z,30.47
2019-01-23T21:50:07.441Z,32.67
2019-01-23T21:52:38.880Z,24.90
2019-01-23T21:55:11.535Z,28.40
2019-01-23T21:57:42.689Z,32.40
2019-01-23T22:00:16.634Z,29.90
2019-01-23T22:02:49.211Z,32.80
2019-01-23T22:05:18.745Z,33.27
2019-01-23T22:07:49.548Z,33.30
2019-01-23T22:10:19.186Z,34.53
2019-01-23T22:12:48.704Z,43.70
2019-01-23T22:15:19.773Z,43.73
2019-01-23T22:17:49.589Z,37.03
2019-01-23T22:20:20.036Z,25.87
2019-01-23T22:22:49.993Z,20.80
2019-01-23T22:25:21.437Z,20.13
2019-01-23T22:27:51.039Z,21.87
2019-01-23T22:30:31.483Z,20.90
2019-01-23T22:33:01.010Z,19.63
2019-01-23T22:35:30.491Z,20.03
2019-01-23T22:37:59.878Z,24.43
2019-01-23T22:40:29.657Z,23.97
2019-01-23T22:42:59.298Z,24.23
2019-01-23T22:45:28.846Z,27.07
2019-01-23T22:47:58.399Z,26.57
2019-01-23T22:50:29.005Z,23.27
2019-01-23T22:52:58.770Z,25.33
2019-01-23T22:55:28.288Z,24.07
2019-01-23T22:57:57.798Z,28.13
2019-01-23T23:00:38.895Z,28.17
2019-01-23T23:03:11.388Z,27.40
2019-01-23T23:05:40.744Z,32.07
2019-01-23T23:08:10.400Z,34.07
2019-01-23T23:10:41.330Z,32.73
2019-01-23T23:13:10.784Z,20.57
2019-01-23T23:15:40.262Z,19.33
2019-01-23T23:18:09.685Z,25.97
2019-01-23T23:20:39.066Z,34.30
2019-01-23T23:23:08.440Z,38.87
2019-01-23T23:25:37.726Z,34.20
2019-01-23T23:28:07.048Z,33.10
2019-01-23T23:30:36.418Z,33.80
2019-01-23T23:33:06.017Z,32.03
2019-01-23T23:35:35.492Z,31.43
2019-01-23T23:38:05.132Z,30.63
2019-01-23T23:40:34.779Z,29.47
2019-01-23T23:43:04.483Z,25.93
2019-01-23T23:45:34.001Z,26.57
2019-01-23T23:48:03.451Z,28.60
2019-01-23T23:50:32.992Z,20.80
2019-01-23T23:53:02.334Z,20.67
2019-01-23T23:55:31.929Z,25.17
2019-01-23T23:58:01.408Z,25.17
